createdAt,value
2019-01-14T00:01:13.690Z,2.80
2019-01-14T00:04:17.335Z,2.80
2019-01-14T00:07:20.996Z,2.80
2019-01-14T00:10:24.664Z,2.80
2019-01-14T00:13:28.293Z,2.80
2019-01-14T00:16:31.983Z,2.80
2019-01-14T00:19:35.639Z,2.70
2019-01-14T00:22:39.413Z,2.80
2019-01-14T00:25:43.102Z,2.80
2019-01-14T00:28:46.799Z,2.80
2019-01-14T00:31:50.545Z,2.80
2019-01-14T00:34:54.203Z,2.80
2019-01-14T00:37:57.838Z,2.80
2019-01-14T00:41:01.478Z,2.70
2019-01-14T00:44:05.157Z,2.80
2019-01-14T00:47:08.838Z,2.80
2019-01-14T00:50:14.343Z,2.80
2019-01-14T00:53:18.020Z,2.90
2019-01-14T00:56:21.695Z,3.00
2019-01-14T00:59:25.365Z,3.00
2019-01-14T01:02:29.013Z,3.10
2019-01-14T01:05:32.674Z,3.30
2019-01-14T01:08:36.368Z,3.40
2019-01-14T01:11:40.034Z,3.50
2019-01-14T01:14:43.718Z,3.60
2019-01-14T01:17:47.396Z,3.60
2019-01-14T01:20:51.576Z,3.60
2019-01-14T01:23:55.214Z,3.70
2019-01-14T01:26:58.876Z,3.70
2019-01-14T01:30:02.643Z,3.70
2019-01-14T01:33:06.298Z,3.70
2019-01-14T01:36:09.979Z,3.80
2019-01-14T01:39:13.658Z,3.80
2019-01-14T01:42:17.328Z,3.70
2019-01-14T01:45:20.995Z,3.70
2019-01-14T01:48:24.722Z,3.80
2019-01-14T01:51:28.400Z,3.80
2019-01-14T01:54:32.051Z,3.80
2019-01-14T01:57:35.738Z,3.70
2019-01-14T02:00:39.437Z,3.80
2019-01-14T02:03:43.108Z,3.80
2019-01-14T02:06:47.821Z,3.80
2019-01-14T02:09:51.518Z,3.80
2019-01-14T02:12:55.159Z,3.80
2019-01-14T02:15:58.838Z,3.80
2019-01-14T02:19:02.465Z,3.80
2019-01-14T02:22:06.125Z,3.80
2019-01-14T02:25:10.489Z,3.90
2019-01-14T02:28:14.138Z,4.00
2019-01-14T02:31:17.826Z,4.00
2019-01-14T02:34:21.494Z,4.00
2019-01-14T02:37:25.164Z,4.00
2019-01-14T02:40:28.804Z,4.00
2019-01-14T02:43:32.478Z,4.00
2019-01-14T02:46:36.166Z,3.90
2019-01-14T02:49:39.823Z,3.90
2019-01-14T02:52:43.503Z,3.90
2019-01-14T02:55:47.164Z,3.80
2019-01-14T02:58:50.817Z,3.90
2019-01-14T03:01:54.475Z,3.80
2019-01-14T03:04:58.157Z,3.80
2019-01-14T03:08:01.907Z,3.90
2019-01-14T03:11:05.583Z,3.80
2019-01-14T03:14:09.268Z,3.90
2019-01-14T03:17:12.884Z,3.80
2019-01-14T03:20:17.183Z,3.70
2019-01-14T03:23:20.819Z,3.70
2019-01-14T03:26:24.492Z,3.70
2019-01-14T03:29:28.150Z,3.70
2019-01-14T03:32:31.869Z,3.70
2019-01-14T03:35:35.505Z,3.70
2019-01-14T03:38:39.186Z,3.70
2019-01-14T03:41:42.824Z,3.70
2019-01-14T03:44:46.464Z,3.70
2019-01-14T03:47:50.158Z,3.60
2019-01-14T03:50:53.795Z,3.60
2019-01-14T03:53:57.479Z,3.50
2019-01-14T03:57:01.186Z,3.40
2019-01-14T04:00:08.788Z,3.40
2019-01-14T04:03:12.459Z,3.40
2019-01-14T04:06:16.090Z,3.30
2019-01-14T04:09:19.783Z,3.30
2019-01-14T04:12:23.427Z,3.30
2019-01-14T04:15:27.087Z,3.30
2019-01-14T04:18:30.745Z,3.30
2019-01-14T04:21:34.432Z,3.20
2019-01-14T04:24:38.113Z,3.20
2019-01-14T04:27:41.730Z,3.20
2019-01-14T04:30:45.424Z,3.30
2019-01-14T04:33:49.091Z,3.30
2019-01-14T04:36:52.765Z,3.30
2019-01-14T04:39:56.453Z,3.30
2019-01-14T04:43:00.137Z,3.30
2019-01-14T04:46:03.812Z,3.30
2019-01-14T04:49:07.470Z,3.30
2019-01-14T04:52:11.193Z,3.30
2019-01-14T04:55:14.831Z,3.30
2019-01-14T04:58:18.498Z,3.30
2019-01-14T05:01:22.167Z,3.40
2019-01-14T05:04:25.821Z,3.40
2019-01-14T05:07:29.937Z,3.40
2019-01-14T05:10:33.647Z,3.40
2019-01-14T05:13:37.336Z,3.30
2019-01-14T05:16:40.980Z,3.30
2019-01-14T05:19:44.671Z,3.40
2019-01-14T05:22:48.352Z,3.50
2019-01-14T05:25:51.997Z,3.50
2019-01-14T05:28:55.695Z,3.60
2019-01-14T05:31:59.320Z,3.60
2019-01-14T05:35:03.000Z,3.60
2019-01-14T05:38:06.648Z,3.60
2019-01-14T05:41:10.367Z,3.50
2019-01-14T05:44:14.051Z,3.50
2019-01-14T05:47:17.713Z,3.50
2019-01-14T05:50:21.363Z,3.50
2019-01-14T05:53:25.110Z,3.50
2019-01-14T05:56:28.812Z,3.40
2019-01-14T05:59:32.511Z,3.40
2019-01-14T06:02:36.150Z,3.30
2019-01-14T06:05:39.843Z,3.30
2019-01-14T06:08:43.474Z,3.30
2019-01-14T06:11:47.167Z,3.30
2019-01-14T06:14:50.853Z,3.30
2019-01-14T06:17:54.598Z,3.30
2019-01-14T06:20:58.278Z,3.30
2019-01-14T06:24:01.942Z,3.30
2019-01-14T06:27:05.643Z,3.30
2019-01-14T06:30:18.130Z,3.30
2019-01-14T06:33:22.023Z,3.30
2019-01-14T06:36:25.659Z,3.30
2019-01-14T06:39:29.334Z,3.20
2019-01-14T06:42:32.994Z,3.30
2019-01-14T06:45:36.684Z,3.30
2019-01-14T06:48:40.383Z,3.30
2019-01-14T06:51:44.062Z,3.30
2019-01-14T06:54:47.759Z,3.30
2019-01-14T06:57:51.436Z,3.30
2019-01-14T07:00:55.114Z,3.30
2019-01-14T07:03:58.750Z,3.30
2019-01-14T07:07:02.534Z,3.30
2019-01-14T07:10:12.183Z,3.20
2019-01-14T07:13:15.822Z,3.20
2019-01-14T07:16:19.504Z,3.10
2019-01-14T07:19:23.188Z,3.00
2019-01-14T07:22:26.859Z,2.90
2019-01-14T07:25:30.509Z,2.90
2019-01-14T07:28:34.203Z,2.90
2019-01-14T07:31:37.852Z,2.90
2019-01-14T07:34:41.539Z,2.80
2019-01-14T07:37:45.222Z,2.80
2019-01-14T07:40:48.882Z,2.80
2019-01-14T07:43:52.557Z,2.80
2019-01-14T07:46:56.243Z,2.80
2019-01-14T07:49:59.905Z,2.80
2019-01-14T07:53:03.598Z,2.80
2019-01-14T07:56:07.392Z,2.70
2019-01-14T07:59:11.678Z,2.70
2019-01-14T08:02:15.323Z,2.70
2019-01-14T08:05:19.092Z,2.80
2019-01-14T08:08:22.735Z,2.80
2019-01-14T08:11:26.428Z,2.90
2019-01-14T08:14:30.104Z,2.90
2019-01-14T08:17:33.838Z,2.90
2019-01-14T08:20:37.539Z,2.90
2019-01-14T08:23:41.208Z,2.80
2019-01-14T08:26:45.360Z,2.80
2019-01-14T08:29:49.005Z,2.70
2019-01-14T08:32:52.708Z,2.70
2019-01-14T08:35:56.458Z,2.70
2019-01-14T08:39:00.103Z,2.80
2019-01-14T08:42:03.978Z,2.80
2019-01-14T08:45:09.135Z,2.90
2019-01-14T08:48:12.851Z,2.90
2019-01-14T08:51:16.486Z,2.90
2019-01-14T08:54:20.179Z,3.00
2019-01-14T08:57:23.852Z,3.00
2019-01-14T09:00:27.560Z,3.00
2019-01-14T09:03:31.240Z,3.10
2019-01-14T09:06:34.885Z,3.10
2019-01-14T09:09:38.554Z,3.10
2019-01-14T09:12:42.209Z,3.10
2019-01-14T09:15:47.372Z,3.10
2019-01-14T09:18:51.268Z,3.20
2019-01-14T09:21:54.969Z,3.30
2019-01-14T09:24:58.658Z,3.30
2019-01-14T09:28:02.336Z,3.40
2019-01-14T09:31:06.019Z,3.50
2019-01-14T09:34:10.180Z,3.60
2019-01-14T09:37:13.901Z,3.70
2019-01-14T09:40:21.978Z,3.80
2019-01-14T09:43:25.672Z,3.90
2019-01-14T09:46:29.440Z,4.20
2019-01-14T09:49:33.117Z,4.20
2019-01-14T09:52:36.778Z,4.20
2019-01-14T09:55:40.419Z,4.00
2019-01-14T09:58:44.116Z,4.10
2019-01-14T10:01:47.803Z,4.00
2019-01-14T10:04:51.459Z,3.80
2019-01-14T10:07:55.175Z,3.50
2019-01-14T10:10:58.804Z,3.40
2019-01-14T10:14:02.478Z,3.30
2019-01-14T10:17:06.261Z,3.20
2019-01-14T10:20:12.681Z,3.20
2019-01-14T10:23:16.318Z,3.30
2019-01-14T10:26:20.039Z,3.30
2019-01-14T10:29:23.726Z,3.30
2019-01-14T10:32:27.347Z,3.40
2019-01-14T10:35:31.057Z,4.40
2019-01-14T10:38:34.688Z,5.10
2019-01-14T10:41:38.372Z,5.10
2019-01-14T10:44:42.072Z,4.70
2019-01-14T10:47:45.708Z,4.20
2019-01-14T10:50:49.406Z,3.90
2019-01-14T10:53:54.122Z,3.80
2019-01-14T10:56:57.808Z,3.80
2019-01-14T11:00:01.470Z,3.50
2019-01-14T11:03:05.663Z,2.80
2019-01-14T11:06:09.396Z,2.40
2019-01-14T11:09:13.086Z,2.30
2019-01-14T11:12:16.749Z,2.10
2019-01-14T11:15:21.725Z,1.90
2019-01-14T11:18:25.388Z,1.80
2019-01-14T11:21:29.050Z,1.70
2019-01-14T11:24:34.312Z,1.70
2019-01-14T11:27:37.952Z,1.80
2019-01-14T11:30:41.612Z,1.80
2019-01-14T11:33:45.312Z,1.90
2019-01-14T11:36:48.986Z,1.90
2019-01-14T11:39:52.617Z,1.80
2019-01-14T11:42:56.273Z,2.00
2019-01-14T11:45:59.935Z,2.10
2019-01-14T11:49:03.572Z,2.20
2019-01-14T11:52:07.367Z,2.40
2019-01-14T11:55:11.060Z,2.70
2019-01-14T11:58:14.736Z,2.80
2019-01-14T12:01:18.404Z,2.70
2019-01-14T12:04:22.051Z,2.70
2019-01-14T12:07:25.723Z,2.70
2019-01-14T12:10:29.331Z,2.70
2019-01-14T12:13:33.003Z,2.60
2019-01-14T12:16:39.212Z,2.70
2019-01-14T12:19:42.881Z,2.70
2019-01-14T12:22:46.558Z,2.70
2019-01-14T12:25:50.199Z,2.70
2019-01-14T12:28:53.885Z,2.80
2019-01-14T12:31:57.544Z,2.90
2019-01-14T12:35:01.189Z,2.90
2019-01-14T12:38:04.903Z,2.90
2019-01-14T12:41:08.534Z,2.80
2019-01-14T12:44:12.234Z,2.80
2019-01-14T12:47:15.913Z,2.70
2019-01-14T12:50:21.698Z,2.60
2019-01-14T12:53:50.348Z,2.50
2019-01-14T12:56:53.999Z,2.30
2019-01-14T12:59:57.675Z,2.10
2019-01-14T13:03:01.328Z,1.80
2019-01-14T13:06:05.003Z,1.40
2019-01-14T13:09:10.623Z,0.90
2019-01-14T13:12:14.298Z,0.90
2019-01-14T13:15:25.778Z,0.80
2019-01-14T13:18:29.453Z,0.80
2019-01-14T13:21:33.133Z,0.90
2019-01-14T13:24:36.760Z,0.90
2019-01-14T13:27:41.025Z,1.00
2019-01-14T13:30:44.869Z,1.00
2019-01-14T13:33:48.585Z,1.10
2019-01-14T13:36:52.324Z,1.10
2019-01-14T13:39:56.318Z,1.10
2019-01-14T13:43:00.017Z,1.20
2019-01-14T13:46:04.124Z,1.20
2019-01-14T13:49:07.758Z,1.10
2019-01-14T13:52:11.428Z,1.10
2019-01-14T13:55:15.222Z,1.00
2019-01-14T13:58:18.895Z,1.00
2019-01-14T14:01:22.548Z,0.90
2019-01-14T14:04:26.242Z,0.90
2019-01-14T14:07:29.884Z,0.90
2019-01-14T14:10:33.574Z,1.00
2019-01-14T14:13:37.259Z,0.90
2019-01-14T14:16:40.875Z,1.00
2019-01-14T14:19:44.543Z,1.10
2019-01-14T14:22:48.303Z,1.20
2019-01-14T14:25:52.015Z,1.10
2019-01-14T14:28:55.679Z,1.10
2019-01-14T14:31:59.375Z,1.10
2019-01-14T14:35:03.053Z,1.00
2019-01-14T14:38:06.707Z,1.10
2019-01-14T14:41:10.368Z,1.10
2019-01-14T14:44:14.082Z,1.00
2019-01-14T14:47:17.724Z,0.90
2019-01-14T14:50:21.923Z,0.80
2019-01-14T14:53:25.656Z,0.70
2019-01-14T14:56:29.309Z,0.60
2019-01-14T14:59:32.970Z,0.60
2019-01-14T15:02:36.701Z,0.60
2019-01-14T15:05:40.430Z,0.60
2019-01-14T15:08:44.054Z,0.50
2019-01-14T15:11:47.763Z,0.50
2019-01-14T15:14:52.780Z,0.50
2019-01-14T15:17:57.056Z,0.40
2019-01-14T15:21:00.745Z,0.40
2019-01-14T15:24:04.393Z,0.40
2019-01-14T15:27:08.188Z,0.40
2019-01-14T15:30:14.948Z,0.40
2019-01-14T15:33:19.606Z,0.40
2019-01-14T15:36:23.928Z,0.50
2019-01-14T15:39:28.140Z,0.40
2019-01-14T15:42:31.959Z,0.40
2019-01-14T15:45:35.588Z,0.30
2019-01-14T15:48:39.257Z,0.00
2019-01-14T15:51:43.217Z,-0.40
2019-01-14T15:54:47.004Z,-0.70
2019-01-14T15:57:51.556Z,-0.80
2019-01-14T16:00:55.366Z,-0.80
2019-01-14T16:03:59.063Z,-0.80
2019-01-14T16:07:02.776Z,-0.80
2019-01-14T16:10:10.701Z,-0.80
2019-01-14T16:13:16.024Z,-0.80
2019-01-14T16:16:19.720Z,-0.90
2019-01-14T16:19:23.419Z,-1.00
2019-01-14T16:22:27.080Z,-1.10
2019-01-14T16:25:30.791Z,-1.20
2019-01-14T16:28:34.477Z,-1.20
2019-01-14T16:31:38.163Z,-1.30
2019-01-14T16:34:41.851Z,-1.30
2019-01-14T16:37:45.522Z,-1.30
2019-01-14T16:40:49.183Z,-1.30
2019-01-14T16:43:52.858Z,-1.30
2019-01-14T16:46:56.513Z,-1.30
2019-01-14T16:50:00.228Z,-1.20
2019-01-14T16:53:03.842Z,-1.20
2019-01-14T16:56:07.531Z,-1.10
2019-01-14T16:59:11.933Z,-1.10
2019-01-14T17:02:15.588Z,-1.20
2019-01-14T17:05:19.270Z,-1.20
2019-01-14T17:08:22.933Z,-1.20
2019-01-14T17:11:26.658Z,-1.20
2019-01-14T17:14:30.350Z,-1.20
2019-01-14T17:17:33.978Z,-1.20
2019-01-14T17:20:37.658Z,-1.20
2019-01-14T17:23:41.308Z,-1.10
2019-01-14T17:26:45.000Z,-1.10
2019-01-14T17:29:48.695Z,-1.40
2019-01-14T17:32:53.550Z,-1.60
2019-01-14T17:35:57.329Z,-1.70
2019-01-14T17:39:01.027Z,-1.90
2019-01-14T17:42:04.837Z,-1.90
2019-01-14T17:45:09.863Z,-1.90
2019-01-14T17:48:14.372Z,-1.90
2019-01-14T17:51:18.085Z,-2.00
2019-01-14T17:54:21.817Z,-2.00
2019-01-14T17:57:25.454Z,-2.00
2019-01-14T18:00:29.140Z,-2.00
2019-01-14T18:03:32.838Z,-1.90
2019-01-14T18:06:36.497Z,-1.90
2019-01-14T18:09:41.777Z,-1.80
2019-01-14T18:12:45.401Z,-1.70
2019-01-14T18:15:49.076Z,-1.70
2019-01-14T18:18:52.799Z,-1.70
2019-01-14T18:21:56.472Z,-1.70
2019-01-14T18:25:00.181Z,-1.70
2019-01-14T18:28:03.819Z,-1.70
2019-01-14T18:31:07.514Z,-1.80
2019-01-14T18:34:11.185Z,-1.80
2019-01-14T18:37:14.883Z,-1.90
2019-01-14T18:40:19.079Z,-2.00
2019-01-14T18:43:23.049Z,-2.00
2019-01-14T18:46:26.787Z,-2.00
2019-01-14T18:49:30.470Z,-2.10
2019-01-14T18:52:34.209Z,-2.10
2019-01-14T18:55:39.109Z,-2.10
2019-01-14T18:58:42.771Z,-2.00
2019-01-14T19:01:46.538Z,-2.00
2019-01-14T19:04:50.208Z,-2.00
2019-01-14T19:07:53.966Z,-1.90
2019-01-14T19:10:58.406Z,-1.90
2019-01-14T19:14:02.178Z,-1.90
2019-01-14T19:17:05.904Z,-1.80
2019-01-14T19:20:18.148Z,-1.80
2019-01-14T19:23:21.882Z,-1.80
2019-01-14T19:26:26.560Z,-1.80
2019-01-14T19:29:30.628Z,-1.70
2019-01-14T19:32:47.113Z,-1.70
2019-01-14T19:39:22.202Z,-1.70
2019-01-14T19:42:27.398Z,-1.70
2019-01-14T19:45:31.039Z,-1.80
2019-01-14T19:48:34.707Z,-1.90
2019-01-14T19:51:38.519Z,-2.00
2019-01-14T19:54:42.212Z,-2.00
2019-01-14T19:57:45.968Z,-2.10
2019-01-14T20:00:49.655Z,-2.10
2019-01-14T20:03:53.398Z,-2.10
2019-01-14T20:06:57.089Z,-2.00
2019-01-14T20:10:00.727Z,-1.90
2019-01-14T20:13:04.483Z,-1.80
2019-01-14T20:16:08.280Z,-1.80
2019-01-14T20:19:13.679Z,-1.70
2019-01-14T20:22:17.419Z,-1.70
2019-01-14T20:25:21.197Z,-1.60
2019-01-14T20:28:25.073Z,-1.60
2019-01-14T20:31:28.819Z,-1.60
2019-01-14T20:34:32.540Z,-1.60
2019-01-14T20:37:36.251Z,-1.60
2019-01-14T20:40:39.982Z,-1.60
2019-01-14T20:43:45.149Z,-1.60
2019-01-14T20:46:48.878Z,-1.60
2019-01-14T20:49:52.648Z,-1.60
2019-01-14T20:52:56.413Z,-1.60
2019-01-14T20:56:00.122Z,-1.60
2019-01-14T20:59:03.828Z,-1.60
2019-01-14T21:02:07.489Z,-1.60
2019-01-14T21:05:11.363Z,-1.60
2019-01-14T21:08:15.144Z,-1.60
2019-01-14T21:11:23.888Z,-1.70
2019-01-14T21:14:24.116Z,-1.80
2019-01-14T21:17:27.835Z,-1.90
2019-01-14T21:20:31.536Z,-2.10
2019-01-14T21:23:35.305Z,-2.20
2019-01-14T21:26:38.960Z,-2.30
2019-01-14T21:29:42.660Z,-2.30
2019-01-14T21:32:46.335Z,-2.30
2019-01-14T21:35:50.040Z,-2.30
2019-01-14T21:38:53.755Z,-2.40
2019-01-14T21:41:57.396Z,-2.40
2019-01-14T21:45:01.083Z,-2.50
2019-01-14T21:48:04.747Z,-2.50
2019-01-14T21:51:08.434Z,-2.50
2019-01-14T21:54:12.124Z,-2.60
2019-01-14T21:57:15.780Z,-2.60
2019-01-14T22:00:21.885Z,-2.70
2019-01-14T22:03:25.577Z,-2.80
2019-01-14T22:06:29.256Z,-2.80
2019-01-14T22:09:32.912Z,-2.80
2019-01-14T22:12:36.587Z,-2.90
2019-01-14T22:15:40.287Z,-2.90
2019-01-14T22:18:44.009Z,-2.90
2019-01-14T22:21:47.698Z,-2.90
2019-01-14T22:24:51.401Z,-2.90
2019-01-14T22:27:55.072Z,-3.00
2019-01-14T22:30:58.723Z,-3.00
2019-01-14T22:34:02.394Z,-2.90
2019-01-14T22:37:06.059Z,-2.90
2019-01-14T22:40:12.311Z,-2.90
2019-01-14T22:43:15.977Z,-2.80
2019-01-14T22:46:19.654Z,-2.80
2019-01-14T22:49:23.312Z,-2.70
2019-01-14T22:52:27.069Z,-2.60
2019-01-14T22:55:30.677Z,-2.50
2019-01-14T22:58:34.423Z,-2.50
2019-01-14T23:01:38.176Z,-2.50
2019-01-14T23:04:41.959Z,-2.40
2019-01-14T23:07:45.586Z,-2.40
2019-01-14T23:10:50.752Z,-2.40
2019-01-14T23:13:54.665Z,-2.40
2019-01-14T23:16:58.324Z,-2.40
2019-01-14T23:20:02.040Z,-2.40
2019-01-14T23:23:05.668Z,-2.40
2019-01-14T23:26:09.344Z,-2.40
2019-01-14T23:29:13.004Z,-2.30
2019-01-14T23:32:16.713Z,-2.30
2019-01-14T23:35:20.378Z,-2.20
2019-01-14T23:38:24.060Z,-2.20
2019-01-14T23:41:27.745Z,-2.20
2019-01-14T23:44:31.370Z,-2.20
2019-01-14T23:47:35.084Z,-2.10
2019-01-14T23:50:38.767Z,-2.10
2019-01-14T23:53:42.425Z,-2.20
2019-01-14T23:56:46.132Z,-2.20
2019-01-14T23:59:49.799Z,-2.30
